West Paducah, Kentucky
Current Conditions -  °F | °C
As of 11:53 AM on Thursday 18 Dec 2014 (Local Time) from KPAH Reporting Station
Haze Haze  
Wind Chill: 28°   Ceiling: 700
Heat Index: 34°   Visibility: 6mi
Dew Point: 31°   Wind: 7mph
Humidity: 89%   Direction: 20°NNE
Pressure: 30.26"   Gusts: NA
Location:  37.08°N, 88.74°W
Report Text: KPAH 181753Z 02006KT 6SM BR OVC007 01/M01 A3026 RMK AO2 CIG 006V012 SLP251 T00111006 10017 20006 58007
Loading
Personal Weather Stations






























Interactive Weather Map New forecast layout! Learn more

10-Day Weather Forecast

Advertisements
Track Severe Weather on mobile